Time;durP1;ratioP1;P1;durP2;ratioP2;P2;SDS_P1;SDS_P2;PMS_P1;PMS_P2;Temp;Humidity;BMP_temperature;BMP_pressure;BME280_temperature;BME280_humidity;BME280_pressure;Samples;Min_cycle;Max_cycle;Signal;HPM_P1;HPM_P2
2022/12/17 13:06:49;;;;;;;0.10;0.10;;;;;;;-0.50;100.00;97337.31;4947458;28;20582;-73
2022/12/17 13:09:45;;;;;;;0.10;0.10;;;;;;;-0.60;100.00;97334.81;4946557;28;20160;-74
2022/12/17 13:12:42;;;;;;;0.10;0.10;;;;;;;-0.88;100.00;97342.88;4947912;28;20328;-73
2022/12/17 13:15:39;;;;;;;0.10;0.10;;;;;;;-1.10;100.00;97353.88;4948773;28;20306;-73
2022/12/17 13:18:33;;;;;;;0.15;0.10;;;;;;;-1.36;100.00;97347.78;4960471;28;20039;-73
2022/12/17 13:21:19;;;;;;;0.10;0.10;;;;;;;-1.61;100.00;97352.84;4947278;28;20153;-74
2022/12/17 13:24:23;;;;;;;0.10;0.10;;;;;;;-1.61;100.00;97352.00;4947667;28;20042;-73
2022/12/17 13:27:30;;;;;;;0.20;0.20;;;;;;;-1.77;100.00;97343.00;4947395;28;20045;-70
2022/12/17 13:30:15;;;;;;;0.10;0.10;;;;;;;-1.87;100.00;97326.50;4947799;28;20424;-73
2022/12/17 13:33:19;;;;;;;0.10;0.10;;;;;;;-1.83;100.00;97350.66;4949743;28;20065;-71
2022/12/17 13:36:12;;;;;;;0.20;0.20;;;;;;;-1.80;100.00;97342.47;4947090;28;20042;-73
2022/12/17 13:39:04;;;;;;;0.10;0.10;;;;;;;-2.19;100.00;97332.25;4946180;28;20550;-70
2022/12/17 13:41:56;;;;;;;0.10;0.10;;;;;;;-2.32;100.00;97344.91;4947444;28;20271;-72
2022/12/17 13:44:44;;;;;;;0.20;0.20;;;;;;;-2.46;100.00;97335.72;4947314;28;20031;-71
2022/12/17 13:47:33;;;;;;;0.10;0.10;;;;;;;-2.45;100.00;97347.84;4948789;28;20069;-73
2022/12/17 13:50:24;;;;;;;0.20;0.20;;;;;;;-2.45;100.00;97329.50;4947874;28;20046;-72
2022/12/17 13:53:11;;;;;;;0.20;0.20;;;;;;;-2.44;100.00;97348.66;4944498;28;20138;-72
2022/12/17 13:55:57;;;;;;;0.20;0.20;;;;;;;-2.65;100.00;97335.78;4946669;28;20416;-70
2022/12/17 13:58:43;;;;;;;0.10;0.10;;;;;;;-2.59;100.00;97341.28;4945704;28;20294;-73
2022/12/17 14:01:29;;;;;;;0.15;0.15;;;;;;;-2.78;100.00;97340.56;4946053;28;20117;-73
2022/12/17 14:04:24;;;;;;;0.20;0.20;;;;;;;-2.78;100.00;97340.56;4957676;28;20049;-71
2022/12/17 14:07:11;;;;;;;0.10;0.10;;;;;;;-2.82;100.00;97347.84;4949178;28;20047;-72
2022/12/17 14:09:57;;;;;;;0.13;0.13;;;;;;;-2.83;100.00;97333.09;4947207;28;20614;-73
2022/12/17 14:12:43;;;;;;;0.10;0.10;;;;;;;-2.91;100.00;97346.09;4947358;28;20053;-70
2022/12/17 14:15:30;;;;;;;0.10;0.10;;;;;;;-2.85;100.00;97345.53;4945003;28;20057;-72
2022/12/17 14:18:19;;;;;;;0.10;0.10;;;;;;;-2.92;100.00;97352.31;4947429;28;20375;-71
2022/12/17 14:21:07;;;;;;;0.10;0.10;;;;;;;-3.08;100.00;97351.09;4946994;28;20479;-72
2022/12/17 14:23:54;;;;;;;0.20;0.20;;;;;;;-3.09;100.00;97359.94;4947290;28;20039;-72
2022/12/17 14:26:51;;;;;;;0.20;0.20;;;;;;;-3.28;100.00;97359.94;4947688;28;20616;-71
2022/12/17 14:29:45;;;;;;;0.20;0.20;;;;;;;-3.43;100.00;97349.09;4946244;28;20137;-73
2022/12/17 14:32:34;;;;;;;0.20;0.20;;;;;;;-3.54;100.00;97349.25;4967209;28;20054;-73
2022/12/17 14:35:23;;;;;;;0.13;0.13;;;;;;;-3.57;100.00;97360.00;4967328;28;20417;-73
2022/12/17 14:38:16;;;;;;;0.10;0.10;;;;;;;-3.68;100.00;97360.13;4976242;28;20077;-72
2022/12/17 14:44:23;;;;;;;0.10;0.10;;;;;;;-3.92;100.00;97366.59;4962211;28;20548;-72
2022/12/17 14:47:17;;;;;;;0.20;0.20;;;;;;;-3.89;100.00;97365.50;4961350;28;20122;-74
2022/12/17 14:50:12;;;;;;;0.17;0.17;;;;;;;-4.05;100.00;97366.00;4976684;28;20249;-71
2022/12/17 14:53:00;;;;;;;0.13;0.13;;;;;;;-4.18;100.00;97362.00;4962899;28;20053;-74
2022/12/17 14:55:57;;;;;;;0.20;0.20;;;;;;;-4.29;100.00;97361.16;4963050;28;20322;-70
2022/12/17 14:58:45;;;;;;;0.20;0.20;;;;;;;-4.40;100.00;97366.50;4963380;28;20042;-73
2022/12/17 15:01:31;;;;;;;0.10;0.10;;;;;;;-4.42;100.00;97365.81;4950890;28;20046;-73
2022/12/17 15:04:17;;;;;;;0.20;0.20;;;;;;;-4.53;100.00;97369.31;4941975;28;20050;-72
2022/12/17 15:07:05;;;;;;;0.20;0.20;;;;;;;-4.66;100.00;97371.38;4942147;28;20051;-73
2022/12/17 15:09:54;;;;;;;0.20;0.20;;;;;;;-4.72;100.00;97378.88;4945422;28;20138;-73
2022/12/17 15:12:41;;;;;;;0.10;0.10;;;;;;;-4.81;100.00;97376.09;4944367;28;20054;-73
2022/12/17 15:15:27;;;;;;;0.20;0.20;;;;;;;-4.95;100.00;97373.00;4946736;28;20070;-74
2022/12/17 15:18:13;;;;;;;0.10;0.10;;;;;;;-5.02;100.00;97374.47;4944664;28;20082;-73
2022/12/17 15:21:00;;;;;;;0.20;0.20;;;;;;;-4.93;100.00;97384.97;4947355;28;20568;-71
2022/12/17 15:23:48;;;;;;;0.10;0.10;;;;;;;-5.06;100.00;97389.56;4958104;28;20069;-73
2022/12/17 15:26:34;;;;;;;0.10;0.10;;;;;;;-5.20;100.00;97382.06;4941690;28;20518;-73
2022/12/17 15:29:20;;;;;;;0.10;0.10;;;;;;;-5.29;100.00;97388.03;4947870;28;20877;-73
2022/12/17 15:32:07;;;;;;;0.20;0.20;;;;;;;-5.35;100.00;97398.03;4961269;28;20442;-70
2022/12/17 15:34:53;;;;;;;0.10;0.10;;;;;;;-5.39;100.00;97401.84;4962561;28;20121;-73
2022/12/17 15:37:39;;;;;;;0.10;0.10;;;;;;;-5.39;100.00;97407.06;4962415;28;20515;-71
2022/12/17 15:40:25;;;;;;;0.10;0.10;;;;;;;-5.50;100.00;97407.13;4964225;28;20506;-73
2022/12/17 15:43:12;;;;;;;0.20;0.20;;;;;;;-5.61;100.00;97409.75;4963180;28;20443;-72
2022/12/17 15:46:00;;;;;;;0.20;0.20;;;;;;;-5.70;100.00;97400.91;4963344;28;20243;-72
2022/12/17 15:48:46;;;;;;;0.20;0.20;;;;;;;-5.62;100.00;97408.94;4962349;28;20734;-72
2022/12/17 15:51:32;;;;;;;0.10;0.10;;;;;;;-5.69;100.00;97418.22;4963091;28;20465;-74
2022/12/17 15:54:17;;;;;;;0.10;0.10;;;;;;;-5.78;100.00;97412.91;4962547;28;20096;-72
2022/12/17 15:57:03;;;;;;;0.10;0.10;;;;;;;-5.82;100.00;97416.75;4964771;28;20402;-73
2022/12/17 15:59:50;;;;;;;0.20;0.20;;;;;;;-5.92;100.00;97406.22;4957843;28;20432;-74
2022/12/17 16:02:36;;;;;;;0.10;0.10;;;;;;;-5.95;100.00;97417.75;4277920;28;10000453;-73
2022/12/17 16:05:22;;;;;;;0.20;0.20;;;;;;;-5.91;100.00;97423.56;4961415;28;20181;-72
2022/12/17 16:08:11;;;;;;;0.20;0.20;;;;;;;-5.93;100.00;97422.81;4959473;28;20899;-73
2022/12/17 16:10:58;;;;;;;0.10;0.10;;;;;;;-6.00;100.00;97424.25;4963523;28;20054;-73
2022/12/17 16:13:43;;;;;;;0.20;0.20;;;;;;;-6.02;100.00;97427.00;4961712;28;20442;-73
2022/12/17 16:16:30;;;;;;;0.13;0.13;;;;;;;-6.13;100.00;97431.41;4962093;28;20039;-73
2022/12/17 16:19:16;;;;;;;0.20;0.20;;;;;;;-6.23;100.00;97436.50;4963606;28;20039;-72
2022/12/17 16:22:02;;;;;;;0.20;0.20;;;;;;;-6.19;100.00;97445.75;4961881;28;20497;-71
2022/12/17 16:24:48;;;;;;;0.10;0.10;;;;;;;-6.31;100.00;97438.88;4958987;28;20553;-73
2022/12/17 16:27:34;;;;;;;0.13;0.13;;;;;;;-6.30;100.00;97436.19;4960511;28;20148;-72
2022/12/17 16:30:20;;;;;;;0.20;0.20;;;;;;;-6.35;100.00;97437.47;4959484;28;20055;-73
2022/12/17 16:33:06;;;;;;;0.10;0.10;;;;;;;-6.40;100.00;97437.81;4941577;28;20043;-73
2022/12/17 16:35:53;;;;;;;0.10;0.10;;;;;;;-6.44;100.00;97436.41;4940962;28;20255;-73
2022/12/17 16:38:44;;;;;;;0.10;0.10;;;;;;;-6.43;100.00;97442.44;4941579;28;20105;-71
2022/12/17 16:41:31;;;;;;;0.20;0.20;;;;;;;-6.47;100.00;97449.66;4942535;28;20051;-72
2022/12/17 16:44:18;;;;;;;0.20;0.20;;;;;;;-6.57;100.00;97451.31;4941508;28;20077;-71
2022/12/17 16:47:04;;;;;;;0.20;0.20;;;;;;;-6.62;100.00;97458.66;4941314;28;20609;-69
2022/12/17 16:49:49;;;;;;;0.20;0.20;;;;;;;-6.62;100.00;97462.06;4941020;28;20138;-70
2022/12/17 16:52:35;;;;;;;0.10;0.10;;;;;;;-6.69;100.00;97460.06;4940763;28;20055;-72
2022/12/17 16:55:21;;;;;;;0.10;0.10;;;;;;;-6.71;100.00;97467.16;4941678;28;21663;-72
2022/12/17 16:58:07;;;;;;;0.10;0.10;;;;;;;-6.74;100.00;97465.63;4941737;28;20464;-72
2022/12/17 17:00:54;;;;;;;0.20;0.20;;;;;;;-6.76;100.00;97467.53;4941561;28;20050;-71
2022/12/17 17:03:41;;;;;;;0.20;0.20;;;;;;;-6.73;100.00;97462.09;4941569;28;20818;-70
2022/12/17 17:06:26;;;;;;;0.10;0.10;;;;;;;-6.67;100.00;97456.41;4945017;28;20054;-70
2022/12/17 17:09:13;;;;;;;0.10;0.10;;;;;;;-6.58;100.00;97466.13;4944820;28;20585;-68
2022/12/17 17:11:59;;;;;;;0.13;0.13;;;;;;;-6.60;100.00;97455.00;4946901;28;20451;-71
2022/12/17 17:14:45;;;;;;;0.20;0.20;;;;;;;-6.71;100.00;97465.38;4945820;28;20050;-70
2022/12/17 17:17:31;;;;;;;0.20;0.20;;;;;;;-6.74;100.00;97466.47;4943956;28;20153;-72
2022/12/17 17:20:17;;;;;;;0.20;0.20;;;;;;;-6.79;100.00;97471.19;4944619;28;20047;-73
2022/12/17 17:23:03;;;;;;;0.20;0.20;;;;;;;-6.89;100.00;97469.41;4944230;28;20070;-72
2022/12/17 17:25:49;;;;;;;0.20;0.20;;;;;;;-6.92;100.00;97477.44;4945704;28;20944;-69
2022/12/17 17:28:35;;;;;;;0.10;0.10;;;;;;;-7.05;100.00;97473.16;4945192;28;20126;-72
2022/12/17 17:31:22;;;;;;;0.10;0.10;;;;;;;-7.04;100.00;97479.19;4953297;28;20069;-72
2022/12/17 17:34:09;;;;;;;0.20;0.20;;;;;;;-7.11;100.00;97484.00;4965892;28;20121;-72
2022/12/17 17:36:55;;;;;;;0.10;0.10;;;;;;;-7.14;100.00;97484.25;4963653;28;20054;-75
2022/12/17 17:39:41;;;;;;;0.13;0.13;;;;;;;-7.21;100.00;97477.00;4964452;28;20570;-70
2022/12/17 17:42:27;;;;;;;0.20;0.20;;;;;;;-7.24;100.00;97466.81;4963758;28;20054;-72
2022/12/17 17:45:13;;;;;;;0.20;0.20;;;;;;;-7.26;100.00;97477.34;4963182;28;20418;-72
2022/12/17 17:48:00;;;;;;;0.10;0.10;;;;;;;-7.23;100.00;97478.91;4963893;28;20034;-72
2022/12/17 17:51:07;;;;;;;0.20;0.20;;;;;;;-7.28;100.00;97479.22;4964095;28;20053;-71
2022/12/17 17:53:53;;;;;;;0.20;0.20;;;;;;;-7.27;100.00;97478.28;4962351;28;20569;-70
2022/12/17 17:56:41;;;;;;;0.17;0.17;;;;;;;-7.23;100.00;97482.31;4964001;28;20542;-73
2022/12/17 17:59:27;;;;;;;0.13;0.13;;;;;;;-7.18;100.00;97482.78;4967383;28;20042;-72
2022/12/17 18:02:13;;;;;;;0.20;0.20;;;;;;;-7.19;100.00;97486.34;4966502;28;20034;-72
2022/12/17 18:04:58;;;;;;;0.10;0.10;;;;;;;-7.15;100.00;97494.78;4966488;28;20034;-72
2022/12/17 18:07:44;;;;;;;0.20;0.20;;;;;;;-7.15;100.00;97485.19;4967690;28;20088;-69
2022/12/17 18:10:30;;;;;;;0.20;0.20;;;;;;;-7.10;100.00;97495.25;4967703;28;20038;-71
2022/12/17 18:16:49;;;;;;;0.20;0.20;;;;;;;-7.08;100.00;97494.19;4967630;28;20500;-71
2022/12/17 18:19:35;;;;;;;0.10;0.10;;;;;;;-7.18;100.00;97501.00;4966700;28;20042;-73
2022/12/17 18:22:21;;;;;;;0.20;0.20;;;;;;;-7.17;100.00;97489.66;4978391;28;20715;-71
2022/12/17 18:25:07;;;;;;;0.20;0.20;;;;;;;-7.13;100.00;97496.31;4617549;28;9999711;-72
2022/12/17 18:27:53;;;;;;;0.17;0.17;;;;;;;-7.10;100.00;97500.44;4965880;28;20153;-72
2022/12/17 18:30:39;;;;;;;0.10;0.10;;;;;;;-7.14;100.00;97489.44;4960915;28;20251;-72
2022/12/17 18:33:28;;;;;;;0.10;0.10;;;;;;;-7.17;100.00;97497.47;4945685;28;20555;-72
2022/12/17 18:36:17;;;;;;;0.10;0.10;;;;;;;-7.25;100.00;97499.78;4945072;28;20062;-70
2022/12/17 18:39:12;;;;;;;0.17;0.17;;;;;;;-7.31;100.00;97492.47;4944438;28;20124;-71
2022/12/17 18:45:03;;;;;;;0.10;0.10;;;;;;;-7.20;100.00;97487.28;4946423;28;20046;-71
2022/12/17 18:47:49;;;;;;;0.10;0.10;;;;;;;-7.17;100.00;97494.84;4945408;28;20570;-70
2022/12/17 18:50:35;;;;;;;0.20;0.20;;;;;;;-7.18;100.00;97502.78;4943958;28;20716;-73
2022/12/17 18:53:21;;;;;;;0.20;0.20;;;;;;;-7.17;100.00;97496.63;4944082;28;20616;-73
2022/12/17 18:56:11;;;;;;;0.10;0.10;;;;;;;-7.19;100.00;97499.34;4944136;28;20038;-71
2022/12/17 18:58:57;;;;;;;0.20;0.20;;;;;;;-7.22;100.00;97499.59;4942526;28;20058;-72
2022/12/17 19:01:45;;;;;;;0.20;0.20;;;;;;;-7.23;100.00;97492.72;4944901;28;20324;-71
2022/12/17 19:04:31;;;;;;;0.10;0.10;;;;;;;-7.30;100.00;97496.72;4945390;28;20113;-73
2022/12/17 19:07:17;;;;;;;0.20;0.20;;;;;;;-7.30;100.00;97492.34;4943047;28;20101;-72
2022/12/17 19:10:04;;;;;;;0.20;0.20;;;;;;;-7.43;100.00;97470.78;4947316;28;20042;-69
2022/12/17 19:12:50;;;;;;;0.20;0.20;;;;;;;-7.28;100.00;97487.03;4943831;28;20035;-71
2022/12/17 19:15:36;;;;;;;0.15;0.15;;;;;;;-7.26;100.00;97498.13;4955898;28;20727;-72
2022/12/17 19:18:22;;;;;;;0.20;0.20;;;;;;;-7.33;100.00;97509.94;4945406;28;20039;-69
2022/12/17 19:21:13;;;;;;;0.10;0.10;;;;;;;-7.29;100.00;97498.38;4943886;28;20112;-70
2022/12/17 19:24:01;;;;;;;;;;;;;;;-7.31;100.00;97497.66;4943672;28;20508;-71
2022/12/17 19:26:48;;;;;;;0.20;0.20;;;;;;;-7.29;100.00;97503.59;4944160;28;19929;-71
2022/12/17 19:29:33;;;;;;;0.10;0.10;;;;;;;-7.35;100.00;97485.81;4943822;28;20736;-73
2022/12/17 19:32:19;;;;;;;0.20;0.20;;;;;;;-7.33;100.00;97494.31;4960460;28;20453;-72
2022/12/17 19:35:06;;;;;;;0.20;0.20;;;;;;;-7.37;100.00;97498.09;4964358;28;20456;-72
2022/12/17 19:37:52;;;;;;;0.10;0.10;;;;;;;-7.40;100.00;97500.91;4962791;28;20054;-70
2022/12/17 19:40:37;;;;;;;0.20;0.20;;;;;;;-7.45;100.00;97505.63;4963540;28;20430;-72
2022/12/17 19:43:24;;;;;;;0.10;0.10;;;;;;;-7.46;100.00;97507.41;4964280;28;20052;-72
2022/12/17 19:46:13;;;;;;;0.20;0.20;;;;;;;-7.47;100.00;97507.50;4962565;28;20077;-72
2022/12/17 19:48:59;;;;;;;0.20;0.20;;;;;;;-7.51;100.00;97506.91;4964424;28;20062;-71
2022/12/17 19:51:45;;;;;;;0.20;0.20;;;;;;;-7.54;100.00;97516.72;4964198;28;20156;-71
2022/12/17 19:54:31;;;;;;;0.20;0.20;;;;;;;-7.57;100.00;97507.34;4963646;28;20101;-71
2022/12/17 19:57:17;;;;;;;0.20;0.20;;;;;;;-7.54;100.00;97517.53;4962498;28;20077;-71
2022/12/17 20:00:03;;;;;;;0.10;0.10;;;;;;;-7.52;100.00;97520.03;4963453;28;20042;-70
2022/12/17 20:02:58;;;;;;;0.20;0.20;;;;;;;-7.55;100.00;97518.44;4962075;28;20549;-73
2022/12/17 20:05:45;;;;;;;0.10;0.10;;;;;;;-7.49;100.00;97525.81;4973072;28;20073;-72
2022/12/17 20:08:32;;;;;;;0.20;0.20;;;;;;;-7.54;100.00;97532.31;4963390;28;20419;-73
2022/12/17 20:11:31;;;;;;;0.20;0.20;;;;;;;-7.63;100.00;97520.78;4976006;28;20042;-72
2022/12/17 20:14:27;;;;;;;0.20;0.20;;;;;;;-7.66;100.00;97536.59;4963638;28;20046;-73
2022/12/17 20:17:12;;;;;;;0.10;0.10;;;;;;;-7.76;100.00;97523.44;4963131;28;20125;-70
2022/12/17 20:19:58;;;;;;;0.20;0.20;;;;;;;-7.80;100.00;97532.38;4964059;28;20384;-70
2022/12/17 20:22:44;;;;;;;0.20;0.20;;;;;;;-7.76;100.00;97536.44;4962777;28;20046;-72
2022/12/17 20:25:30;;;;;;;0.20;0.20;;;;;;;-7.77;100.00;97552.97;4961868;28;20042;-72
2022/12/17 20:28:16;;;;;;;0.20;0.20;;;;;;;-7.79;100.00;97544.44;4962411;28;20125;-70
2022/12/17 20:31:03;;;;;;;0.20;0.20;;;;;;;-7.81;100.00;97538.50;4960809;28;20411;-71
2022/12/17 20:33:49;;;;;;;0.10;0.10;;;;;;;-7.92;100.00;97525.47;4942904;28;20035;-71
2022/12/17 20:36:35;;;;;;;0.10;0.10;;;;;;;-7.79;100.00;97534.03;4942541;28;20050;-72
2022/12/17 20:39:21;;;;;;;0.20;0.20;;;;;;;-7.73;100.00;97540.56;4946381;28;20560;-74
2022/12/17 20:42:08;;;;;;;0.20;0.20;;;;;;;-7.65;100.00;97540.84;4947651;28;20065;-72
2022/12/17 20:44:53;;;;;;;0.20;0.20;;;;;;;-7.63;100.00;97539.81;4945485;28;20791;-71
2022/12/17 20:47:39;;;;;;;0.15;0.15;;;;;;;-7.61;100.00;97534.50;4944699;28;20051;-69
2022/12/17 20:50:25;;;;;;;0.20;0.20;;;;;;;-7.57;100.00;97536.78;4944813;28;20774;-71
2022/12/17 20:53:11;;;;;;;0.20;0.20;;;;;;;-7.67;100.00;97538.38;4943218;28;20145;-72
2022/12/17 20:56:06;;;;;;;0.20;0.20;;;;;;;-7.71;100.00;97544.72;4948051;28;20058;-72
2022/12/17 20:58:54;;;;;;;0.13;0.13;;;;;;;-7.73;100.00;97538.81;4943667;28;20245;-69
2022/12/17 21:01:40;;;;;;;0.20;0.20;;;;;;;-7.78;100.00;97533.13;4953280;28;20233;-71
2022/12/17 21:04:26;;;;;;;0.20;0.20;;;;;;;-7.77;100.00;97539.16;4962635;28;20592;-72
2022/12/17 21:07:12;;;;;;;0.13;0.13;;;;;;;-7.79;100.00;97557.41;4963531;28;20778;-72
2022/12/17 21:09:58;;;;;;;0.10;0.10;;;;;;;-7.81;100.00;97556.72;4965786;28;20711;-72
2022/12/17 21:15:49;;;;;;;0.10;0.10;;;;;;;-7.80;100.00;97565.34;4965418;28;20166;-71
2022/12/17 21:18:35;;;;;;;0.15;0.15;;;;;;;-7.80;100.00;97568.75;4964368;28;20046;-73
2022/12/17 21:21:24;;;;;;;0.10;0.10;;;;;;;-7.81;100.00;97567.09;4965116;28;20842;-73
2022/12/17 21:24:10;;;;;;;0.20;0.20;;;;;;;-7.76;100.00;97570.22;4964694;28;20058;-70
2022/12/17 21:26:56;;;;;;;0.20;0.20;;;;;;;-7.74;100.00;97573.53;4964231;28;20042;-72
2022/12/17 21:29:41;;;;;;;0.20;0.20;;;;;;;-7.74;100.00;97577.91;4966312;28;20047;-73
2022/12/17 21:32:27;;;;;;;0.10;0.10;;;;;;;-7.72;100.00;97578.63;4946355;28;20043;-72
2022/12/17 21:35:14;;;;;;;0.20;0.20;;;;;;;-7.88;100.00;97568.47;4947068;28;20392;-72
2022/12/17 21:38:00;;;;;;;0.15;0.15;;;;;;;-7.96;100.00;97573.38;4947632;28;20047;-70
2022/12/17 21:40:46;;;;;;;0.15;0.15;;;;;;;-7.92;100.00;97580.03;4946602;28;20535;-73
2022/12/17 21:43:35;;;;;;;0.20;0.20;;;;;;;-7.96;100.00;97578.56;4946428;28;20050;-73
2022/12/17 21:46:22;;;;;;;0.20;0.20;;;;;;;-7.92;100.00;97575.66;4946660;28;20050;-73
2022/12/17 21:49:08;;;;;;;0.10;0.10;;;;;;;-7.92;100.00;97585.22;4944812;28;20047;-71
2022/12/17 21:51:56;;;;;;;0.20;0.20;;;;;;;-7.89;100.00;97579.81;4946418;28;20605;-71
2022/12/17 21:54:42;;;;;;;0.10;0.10;;;;;;;-7.90;100.00;97578.16;4945457;28;20131;-73
2022/12/17 21:57:29;;;;;;;0.20;0.20;;;;;;;-7.93;100.00;97579.19;4932915;28;20042;-72
2022/12/17 22:00:15;;;;;;;0.20;0.20;;;;;;;-7.94;100.00;97579.28;4943399;28;20043;-70
2022/12/17 22:03:01;;;;;;;0.20;0.20;;;;;;;-7.98;100.00;97575.25;4951943;28;20049;-71
2022/12/17 22:05:47;;;;;;;0.20;0.20;;;;;;;-7.87;100.00;97577.91;4963508;28;20072;-70
2022/12/17 22:08:33;;;;;;;0.20;0.20;;;;;;;-7.82;100.00;97575.00;4963603;28;20130;-73
2022/12/17 22:11:23;;;;;;;0.15;0.15;;;;;;;-7.80;100.00;97563.56;4965023;28;20046;-73
2022/12/17 22:14:11;;;;;;;0.20;0.20;;;;;;;-7.76;100.00;97585.00;4964859;28;20347;-72
2022/12/17 22:16:57;;;;;;;0.20;0.20;;;;;;;-7.87;100.00;97583.94;4967061;28;20597;-70
2022/12/17 22:19:44;;;;;;;0.20;0.20;;;;;;;-7.96;100.00;97573.38;4964473;28;20046;-72
2022/12/17 22:22:30;;;;;;;0.20;0.20;;;;;;;-7.99;100.00;97574.44;4964889;28;20149;-73
2022/12/17 22:25:16;;;;;;;0.10;0.10;;;;;;;-8.00;100.00;97569.34;4962376;28;20050;-71
2022/12/17 22:28:02;;;;;;;0.20;0.20;;;;;;;-8.04;100.00;97566.09;4966910;28;20129;-71
2022/12/17 22:33:52;;;;;;;0.20;0.20;;;;;;;-8.08;100.00;97589.81;4963137;28;20046;-71
2022/12/17 22:36:38;;;;;;;0.10;0.10;;;;;;;-8.07;100.00;97592.31;4963530;28;20495;-74
2022/12/17 22:39:24;;;;;;;0.10;0.10;;;;;;;-8.13;100.00;97588.34;4975596;28;20359;-72
2022/12/17 22:45:19;;;;;;;0.20;0.20;;;;;;;-8.05;100.00;97587.81;4957597;28;20534;-71
2022/12/17 22:48:07;;;;;;;0.13;0.13;;;;;;;-8.02;100.00;97584.19;4963382;28;20035;-69
2022/12/17 22:50:53;;;;;;;0.10;0.10;;;;;;;-8.13;100.00;97598.75;4963000;28;20735;-72
2022/12/17 22:53:39;;;;;;;0.20;0.20;;;;;;;-8.18;100.00;97589.59;4962485;28;20595;-71
2022/12/17 22:56:25;;;;;;;0.20;0.20;;;;;;;-8.19;100.00;97593.13;4965639;28;20458;-71
2022/12/17 22:59:15;;;;;;;0.10;0.10;;;;;;;-8.21;100.00;97590.66;4963100;28;20042;-72
2022/12/17 23:02:01;;;;;;;0.20;0.20;;;;;;;-8.20;100.00;97587.13;4948495;28;20061;-72
2022/12/17 23:04:47;;;;;;;0.20;0.20;;;;;;;-8.24;100.00;97588.28;4943963;28;20047;-70
2022/12/17 23:07:33;;;;;;;0.20;0.20;;;;;;;-8.24;100.00;97584.84;4943481;28;20118;-72
2022/12/17 23:10:20;;;;;;;0.20;0.20;;;;;;;-8.29;100.00;97572.16;4944450;28;20043;-72
2022/12/17 23:13:06;;;;;;;0.20;0.20;;;;;;;-8.36;100.00;97576.13;4944720;28;20204;-71
2022/12/17 23:15:54;;;;;;;0.10;0.10;;;;;;;-8.28;100.00;97579.00;4944759;28;20281;-69
2022/12/17 23:18:41;;;;;;;0.15;0.15;;;;;;;-8.30;100.00;97593.88;4954678;28;20439;-72
2022/12/17 23:21:27;;;;;;;0.10;0.10;;;;;;;-8.32;100.00;97598.34;4944439;28;20516;-71
2022/12/17 23:24:18;;;;;;;0.15;0.15;;;;;;;-8.35;100.00;97595.97;4943928;28;20054;-70
2022/12/17 23:27:04;;;;;;;0.20;0.20;;;;;;;-8.38;100.00;97603.97;4945944;28;20050;-72
2022/12/17 23:29:50;;;;;;;0.20;0.20;;;;;;;-8.39;100.00;97593.72;4943197;28;20618;-72
2022/12/17 23:32:36;;;;;;;0.10;0.10;;;;;;;-8.36;100.00;97601.28;4943006;28;20082;-72
2022/12/17 23:35:22;;;;;;;0.10;0.10;;;;;;;-8.31;100.00;97607.81;4943650;28;20118;-71
2022/12/17 23:38:08;;;;;;;0.10;0.10;;;;;;;-8.36;100.00;97609.91;4945566;28;20128;-72
2022/12/17 23:40:54;;;;;;;0.20;0.20;;;;;;;-8.38;100.00;97603.97;4943151;28;20575;-71
2022/12/17 23:43:40;;;;;;;0.10;0.10;;;;;;;-8.44;100.00;97596.59;4943166;28;20490;-72
2022/12/17 23:46:27;;;;;;;0.20;0.20;;;;;;;-8.37;100.00;97605.63;4955923;28;20118;-69
2022/12/17 23:49:16;;;;;;;0.17;0.17;;;;;;;-8.26;100.00;97607.47;4943770;28;20170;-72
2022/12/17 23:52:02;;;;;;;0.20;0.20;;;;;;;-8.19;100.00;97600.94;4944578;28;20047;-71
2022/12/17 23:54:50;;;;;;;0.20;0.20;;;;;;;-8.14;100.00;97597.09;4942046;28;20502;-71
2022/12/17 23:57:36;;;;;;;0.20;0.20;;;;;;;-8.00;100.00;97587.53;4942008;28;20554;-73
